sensor_id;sensor_type;location;lat;lon;timestamp;P1;durP1;ratioP1;P2;durP2;ratioP2
72115;SDS011;59991;52.140;5.428;2023-11-19T00:00:18;15.73;;;4.85;;
72115;SDS011;59991;52.140;5.428;2023-11-19T00:00:50;17.73;;;5.15;;
72115;SDS011;59991;52.140;5.428;2023-11-19T00:01:24;13.13;;;5.15;;
72115;SDS011;59991;52.140;5.428;2023-11-19T00:01:56;20.67;;;5.45;;
72115;SDS011;59991;52.140;5.428;2023-11-19T00:02:29;15.23;;;5.68;;
72115;SDS011;59991;52.140;5.428;2023-11-19T00:03:00;13.38;;;5.97;;
72115;SDS011;59991;52.140;5.428;2023-11-19T00:03:33;16.77;;;6.00;;
72115;SDS011;59991;52.140;5.428;2023-11-19T00:04:05;13.80;;;6.05;;
72115;SDS011;59991;52.140;5.428;2023-11-19T00:04:55;16.83;;;4.43;;
72115;SDS011;59991;52.140;5.428;2023-11-19T00:05:26;12.60;;;5.03;;
72115;SDS011;59991;52.140;5.428;2023-11-19T00:05:59;18.33;;;5.35;;
72115;SDS011;59991;52.140;5.428;2023-11-19T00:06:30;21.35;;;6.47;;
72115;SDS011;59991;52.140;5.428;2023-11-19T00:07:02;14.73;;;6.60;;
72115;SDS011;59991;52.140;5.428;2023-11-19T00:07:35;14.23;;;5.20;;
72115;SDS011;59991;52.140;5.428;2023-11-19T00:08:08;14.63;;;5.88;;
72115;SDS011;59991;52.140;5.428;2023-11-19T00:08:58;16.35;;;4.70;;
72115;SDS011;59991;52.140;5.428;2023-11-19T00:09:31;11.98;;;5.28;;
72115;SDS011;59991;52.140;5.428;2023-11-19T00:10:03;20.25;;;5.50;;
72115;SDS011;59991;52.140;5.428;2023-11-19T00:10:38;14.13;;;4.82;;
72115;SDS011;59991;52.140;5.428;2023-11-19T00:11:09;16.03;;;4.90;;
72115;SDS011;59991;52.140;5.428;2023-11-19T00:11:42;18.25;;;5.18;;
72115;SDS011;59991;52.140;5.428;2023-11-19T00:12:23;17.25;;;5.10;;
72115;SDS011;59991;52.140;5.428;2023-11-19T00:12:55;14.45;;;4.75;;
72115;SDS011;59991;52.140;5.428;2023-11-19T00:13:28;19.08;;;6.18;;
72115;SDS011;59991;52.140;5.428;2023-11-19T00:13:59;19.02;;;4.68;;
72115;SDS011;59991;52.140;5.428;2023-11-19T00:14:31;16.77;;;5.03;;
72115;SDS011;59991;52.140;5.428;2023-11-19T00:15:02;22.30;;;5.40;;
72115;SDS011;59991;52.140;5.428;2023-11-19T00:15:34;12.07;;;5.00;;
72115;SDS011;59991;52.140;5.428;2023-11-19T00:16:06;16.08;;;4.55;;
72115;SDS011;59991;52.140;5.428;2023-11-19T00:16:38;21.60;;;4.93;;
72115;SDS011;59991;52.140;5.428;2023-11-19T00:17:10;12.38;;;4.63;;
72115;SDS011;59991;52.140;5.428;2023-11-19T00:17:42;18.50;;;4.75;;
72115;SDS011;59991;52.140;5.428;2023-11-19T00:18:18;18.15;;;5.72;;
72115;SDS011;59991;52.140;5.428;2023-11-19T00:18:50;23.05;;;4.75;;
72115;SDS011;59991;52.140;5.428;2023-11-19T00:19:22;12.88;;;4.43;;
72115;SDS011;59991;52.140;5.428;2023-11-19T00:19:53;17.85;;;5.40;;
72115;SDS011;59991;52.140;5.428;2023-11-19T00:20:25;17.33;;;4.70;;
72115;SDS011;59991;52.140;5.428;2023-11-19T00:20:56;15.70;;;4.85;;
72115;SDS011;59991;52.140;5.428;2023-11-19T00:21:28;19.48;;;4.57;;
72115;SDS011;59991;52.140;5.428;2023-11-19T00:21:59;21.27;;;5.53;;
72115;SDS011;59991;52.140;5.428;2023-11-19T00:22:34;14.77;;;4.53;;
72115;SDS011;59991;52.140;5.428;2023-11-19T00:23:05;18.67;;;4.65;;
72115;SDS011;59991;52.140;5.428;2023-11-19T00:23:37;18.17;;;5.20;;
72115;SDS011;59991;52.140;5.428;2023-11-19T00:24:09;16.00;;;4.18;;
72115;SDS011;59991;52.140;5.428;2023-11-19T00:24:40;16.92;;;3.83;;
72115;SDS011;59991;52.140;5.428;2023-11-19T00:25:13;14.98;;;5.35;;
72115;SDS011;59991;52.140;5.428;2023-11-19T00:25:44;14.50;;;4.22;;
72115;SDS011;59991;52.140;5.428;2023-11-19T00:26:16;15.18;;;4.75;;
72115;SDS011;59991;52.140;5.428;2023-11-19T00:26:47;17.10;;;4.65;;
72115;SDS011;59991;52.140;5.428;2023-11-19T00:27:19;20.33;;;4.40;;
72115;SDS011;59991;52.140;5.428;2023-11-19T00:27:50;15.50;;;4.57;;
72115;SDS011;59991;52.140;5.428;2023-11-19T00:28:23;15.65;;;5.18;;
72115;SDS011;59991;52.140;5.428;2023-11-19T00:28:55;20.27;;;5.10;;
72115;SDS011;59991;52.140;5.428;2023-11-19T00:29:27;14.45;;;4.82;;
72115;SDS011;59991;52.140;5.428;2023-11-19T00:29:59;12.65;;;5.03;;
72115;SDS011;59991;52.140;5.428;2023-11-19T00:30:48;10.38;;;3.50;;
72115;SDS011;59991;52.140;5.428;2023-11-19T00:31:19;15.98;;;4.00;;
72115;SDS011;59991;52.140;5.428;2023-11-19T00:31:51;15.30;;;4.25;;
72115;SDS011;59991;52.140;5.428;2023-11-19T00:32:23;21.77;;;4.03;;
72115;SDS011;59991;52.140;5.428;2023-11-19T00:32:55;18.80;;;4.63;;
72115;SDS011;59991;52.140;5.428;2023-11-19T00:33:26;16.90;;;4.30;;
72115;SDS011;59991;52.140;5.428;2023-11-19T00:33:58;19.23;;;4.63;;
72115;SDS011;59991;52.140;5.428;2023-11-19T00:34:29;18.52;;;4.60;;
72115;SDS011;59991;52.140;5.428;2023-11-19T00:35:01;15.75;;;4.32;;
72115;SDS011;59991;52.140;5.428;2023-11-19T00:35:33;17.48;;;4.15;;
72115;SDS011;59991;52.140;5.428;2023-11-19T00:36:05;24.50;;;4.85;;
72115;SDS011;59991;52.140;5.428;2023-11-19T00:36:37;20.83;;;4.00;;
72115;SDS011;59991;52.140;5.428;2023-11-19T00:37:08;20.90;;;4.25;;
72115;SDS011;59991;52.140;5.428;2023-11-19T00:37:40;25.00;;;4.57;;
72115;SDS011;59991;52.140;5.428;2023-11-19T00:38:13;19.90;;;4.73;;
72115;SDS011;59991;52.140;5.428;2023-11-19T00:38:45;17.92;;;4.72;;
72115;SDS011;59991;52.140;5.428;2023-11-19T00:39:17;20.45;;;4.70;;
72115;SDS011;59991;52.140;5.428;2023-11-19T00:39:49;18.33;;;4.28;;
72115;SDS011;59991;52.140;5.428;2023-11-19T00:40:20;21.70;;;4.85;;
72115;SDS011;59991;52.140;5.428;2023-11-19T00:40:54;20.38;;;5.00;;
72115;SDS011;59991;52.140;5.428;2023-11-19T00:41:25;17.10;;;4.20;;
72115;SDS011;59991;52.140;5.428;2023-11-19T00:41:57;22.05;;;4.28;;
72115;SDS011;59991;52.140;5.428;2023-11-19T00:42:28;14.02;;;3.53;;
72115;SDS011;59991;52.140;5.428;2023-11-19T00:43:00;19.50;;;4.75;;
72115;SDS011;59991;52.140;5.428;2023-11-19T00:43:32;17.70;;;4.30;;
72115;SDS011;59991;52.140;5.428;2023-11-19T00:44:03;17.27;;;5.20;;
72115;SDS011;59991;52.140;5.428;2023-11-19T00:44:35;23.27;;;5.53;;
72115;SDS011;59991;52.140;5.428;2023-11-19T00:45:06;17.77;;;4.47;;
72115;SDS011;59991;52.140;5.428;2023-11-19T00:45:42;22.17;;;5.55;;
72115;SDS011;59991;52.140;5.428;2023-11-19T00:46:31;22.00;;;4.00;;
72115;SDS011;59991;52.140;5.428;2023-11-19T00:47:04;22.23;;;4.70;;
72115;SDS011;59991;52.140;5.428;2023-11-19T00:47:36;22.25;;;4.10;;
72115;SDS011;59991;52.140;5.428;2023-11-19T00:48:08;17.67;;;4.72;;
72115;SDS011;59991;52.140;5.428;2023-11-19T00:48:39;23.30;;;4.97;;
72115;SDS011;59991;52.140;5.428;2023-11-19T00:49:11;22.13;;;4.03;;
72115;SDS011;59991;52.140;5.428;2023-11-19T00:49:43;15.85;;;5.05;;
72115;SDS011;59991;52.140;5.428;2023-11-19T00:50:14;28.33;;;4.80;;
72115;SDS011;59991;52.140;5.428;2023-11-19T00:50:46;24.38;;;6.70;;
72115;SDS011;59991;52.140;5.428;2023-11-19T00:51:18;28.05;;;4.65;;
72115;SDS011;59991;52.140;5.428;2023-11-19T00:51:50;21.10;;;4.25;;
72115;SDS011;59991;52.140;5.428;2023-11-19T00:52:21;17.58;;;4.40;;
72115;SDS011;59991;52.140;5.428;2023-11-19T00:52:53;21.40;;;4.78;;
72115;SDS011;59991;52.140;5.428;2023-11-19T00:53:24;21.48;;;5.32;;
72115;SDS011;59991;52.140;5.428;2023-11-19T00:54:15;17.77;;;3.38;;
72115;SDS011;59991;52.140;5.428;2023-11-19T00:54:46;18.50;;;4.07;;
72115;SDS011;59991;52.140;5.428;2023-11-19T00:55:18;21.80;;;4.15;;
72115;SDS011;59991;52.140;5.428;2023-11-19T00:55:49;22.77;;;4.28;;
72115;SDS011;59991;52.140;5.428;2023-11-19T00:56:21;18.10;;;4.30;;
72115;SDS011;59991;52.140;5.428;2023-11-19T00:56:52;21.67;;;5.22;;
72115;SDS011;59991;52.140;5.428;2023-11-19T00:57:24;25.67;;;4.90;;
72115;SDS011;59991;52.140;5.428;2023-11-19T00:57:57;22.23;;;3.80;;
72115;SDS011;59991;52.140;5.428;2023-11-19T00:58:29;20.33;;;3.58;;
72115;SDS011;59991;52.140;5.428;2023-11-19T00:59:00;24.13;;;3.83;;
72115;SDS011;59991;52.140;5.428;2023-11-19T00:59:32;21.15;;;4.10;;
72115;SDS011;59991;52.140;5.428;2023-11-19T01:00:07;23.97;;;4.17;;
72115;SDS011;59991;52.140;5.428;2023-11-19T01:00:46;17.58;;;4.47;;
72115;SDS011;59991;52.140;5.428;2023-11-19T01:01:18;15.93;;;3.30;;
72115;SDS011;59991;52.140;5.428;2023-11-19T01:01:49;21.70;;;4.97;;
72115;SDS011;59991;52.140;5.428;2023-11-19T01:02:22;28.40;;;5.38;;
72115;SDS011;59991;52.140;5.428;2023-11-19T01:02:53;23.25;;;3.60;;
72115;SDS011;59991;52.140;5.428;2023-11-19T01:03:25;26.02;;;5.82;;
72115;SDS011;59991;52.140;5.428;2023-11-19T01:03:57;20.85;;;4.00;;
72115;SDS011;59991;52.140;5.428;2023-11-19T01:04:29;15.63;;;3.75;;
72115;SDS011;59991;52.140;5.428;2023-11-19T01:05:01;24.88;;;3.90;;
72115;SDS011;59991;52.140;5.428;2023-11-19T01:05:33;26.20;;;4.70;;
72115;SDS011;59991;52.140;5.428;2023-11-19T01:06:04;22.48;;;3.47;;
72115;SDS011;59991;52.140;5.428;2023-11-19T01:06:36;20.77;;;3.95;;
72115;SDS011;59991;52.140;5.428;2023-11-19T01:07:19;21.35;;;3.42;;
72115;SDS011;59991;52.140;5.428;2023-11-19T01:07:53;23.63;;;3.55;;
72115;SDS011;59991;52.140;5.428;2023-11-19T01:08:27;17.65;;;3.47;;
72115;SDS011;59991;52.140;5.428;2023-11-19T01:08:58;27.33;;;4.60;;
72115;SDS011;59991;52.140;5.428;2023-11-19T01:09:30;21.63;;;4.28;;
72115;SDS011;59991;52.140;5.428;2023-11-19T01:10:03;24.75;;;4.80;;
72115;SDS011;59991;52.140;5.428;2023-11-19T01:10:38;24.95;;;4.40;;
72115;SDS011;59991;52.140;5.428;2023-11-19T01:11:19;23.47;;;4.17;;
72115;SDS011;59991;52.140;5.428;2023-11-19T01:11:53;19.45;;;5.07;;
72115;SDS011;59991;52.140;5.428;2023-11-19T01:12:24;28.83;;;4.53;;
72115;SDS011;59991;52.140;5.428;2023-11-19T01:12:56;23.83;;;4.93;;
72115;SDS011;59991;52.140;5.428;2023-11-19T01:13:28;23.33;;;4.45;;
72115;SDS011;59991;52.140;5.428;2023-11-19T01:14:00;31.15;;;4.13;;
72115;SDS011;59991;52.140;5.428;2023-11-19T01:14:50;18.08;;;4.35;;
72115;SDS011;59991;52.140;5.428;2023-11-19T01:15:22;19.58;;;3.72;;
72115;SDS011;59991;52.140;5.428;2023-11-19T01:15:54;28.55;;;4.93;;
72115;SDS011;59991;52.140;5.428;2023-11-19T01:16:27;32.30;;;3.75;;
72115;SDS011;59991;52.140;5.428;2023-11-19T01:16:59;23.63;;;4.80;;
72115;SDS011;59991;52.140;5.428;2023-11-19T01:17:32;28.95;;;4.63;;
72115;SDS011;59991;52.140;5.428;2023-11-19T01:18:03;28.42;;;5.07;;
72115;SDS011;59991;52.140;5.428;2023-11-19T01:18:36;26.85;;;4.38;;
72115;SDS011;59991;52.140;5.428;2023-11-19T01:19:07;25.17;;;4.20;;
72115;SDS011;59991;52.140;5.428;2023-11-19T01:19:48;24.45;;;3.88;;
72115;SDS011;59991;52.140;5.428;2023-11-19T01:20:21;27.55;;;4.97;;
72115;SDS011;59991;52.140;5.428;2023-11-19T01:20:53;21.33;;;4.70;;
72115;SDS011;59991;52.140;5.428;2023-11-19T01:21:24;28.23;;;4.45;;
72115;SDS011;59991;52.140;5.428;2023-11-19T01:21:56;24.10;;;3.92;;
72115;SDS011;59991;52.140;5.428;2023-11-19T01:22:27;27.40;;;5.63;;
72115;SDS011;59991;52.140;5.428;2023-11-19T01:22:59;22.95;;;4.35;;
72115;SDS011;59991;52.140;5.428;2023-11-19T01:23:30;27.92;;;5.30;;
72115;SDS011;59991;52.140;5.428;2023-11-19T01:24:02;25.75;;;4.13;;
72115;SDS011;59991;52.140;5.428;2023-11-19T01:24:35;24.10;;;4.10;;
72115;SDS011;59991;52.140;5.428;2023-11-19T01:25:07;31.48;;;4.50;;
72115;SDS011;59991;52.140;5.428;2023-11-19T01:25:38;23.35;;;4.10;;
72115;SDS011;59991;52.140;5.428;2023-11-19T01:26:10;33.67;;;6.35;;
72115;SDS011;59991;52.140;5.428;2023-11-19T01:26:43;23.45;;;5.05;;
72115;SDS011;59991;52.140;5.428;2023-11-19T01:27:33;29.13;;;4.43;;
72115;SDS011;59991;52.140;5.428;2023-11-19T01:28:06;20.60;;;5.07;;
72115;SDS011;59991;52.140;5.428;2023-11-19T01:28:37;31.48;;;3.70;;
72115;SDS011;59991;52.140;5.428;2023-11-19T01:29:22;19.95;;;3.45;;
72115;SDS011;59991;52.140;5.428;2023-11-19T01:29:53;27.98;;;4.35;;
72115;SDS011;59991;52.140;5.428;2023-11-19T01:30:26;29.95;;;4.63;;
72115;SDS011;59991;52.140;5.428;2023-11-19T01:30:57;31.05;;;4.88;;
72115;SDS011;59991;52.140;5.428;2023-11-19T01:31:29;21.63;;;4.00;;
72115;SDS011;59991;52.140;5.428;2023-11-19T01:32:00;22.95;;;4.30;;
72115;SDS011;59991;52.140;5.428;2023-11-19T01:32:32;25.95;;;3.97;;
72115;SDS011;59991;52.140;5.428;2023-11-19T01:33:03;29.00;;;4.18;;
72115;SDS011;59991;52.140;5.428;2023-11-19T01:33:36;27.17;;;4.17;;
72115;SDS011;59991;52.140;5.428;2023-11-19T01:34:08;25.10;;;4.70;;
72115;SDS011;59991;52.140;5.428;2023-11-19T01:34:40;30.10;;;5.45;;
72115;SDS011;59991;52.140;5.428;2023-11-19T01:35:12;26.05;;;5.25;;
72115;SDS011;59991;52.140;5.428;2023-11-19T01:35:44;20.63;;;3.97;;
72115;SDS011;59991;52.140;5.428;2023-11-19T01:36:15;27.55;;;4.43;;
72115;SDS011;59991;52.140;5.428;2023-11-19T01:36:47;36.58;;;5.45;;
72115;SDS011;59991;52.140;5.428;2023-11-19T01:37:37;31.08;;;4.68;;
72115;SDS011;59991;52.140;5.428;2023-11-19T01:38:08;19.33;;;4.35;;
72115;SDS011;59991;52.140;5.428;2023-11-19T01:38:40;32.35;;;4.50;;
72115;SDS011;59991;52.140;5.428;2023-11-19T01:39:12;30.60;;;4.80;;
72115;SDS011;59991;52.140;5.428;2023-11-19T01:39:43;28.38;;;4.68;;
72115;SDS011;59991;52.140;5.428;2023-11-19T01:40:19;27.02;;;4.70;;
72115;SDS011;59991;52.140;5.428;2023-11-19T01:40:55;27.38;;;5.72;;
72115;SDS011;59991;52.140;5.428;2023-11-19T01:41:27;25.65;;;4.45;;
72115;SDS011;59991;52.140;5.428;2023-11-19T01:41:59;35.28;;;4.50;;
72115;SDS011;59991;52.140;5.428;2023-11-19T01:42:35;23.13;;;3.83;;
72115;SDS011;59991;52.140;5.428;2023-11-19T01:43:08;30.42;;;4.88;;
72115;SDS011;59991;52.140;5.428;2023-11-19T01:43:58;20.73;;;5.63;;
72115;SDS011;59991;52.140;5.428;2023-11-19T01:44:30;31.42;;;5.80;;
72115;SDS011;59991;52.140;5.428;2023-11-19T01:45:03;27.97;;;4.97;;
72115;SDS011;59991;52.140;5.428;2023-11-19T01:45:37;37.50;;;4.82;;
72115;SDS011;59991;52.140;5.428;2023-11-19T01:46:10;33.58;;;5.32;;
72115;SDS011;59991;52.140;5.428;2023-11-19T01:46:44;31.83;;;4.93;;
72115;SDS011;59991;52.140;5.428;2023-11-19T01:47:36;34.33;;;5.05;;
72115;SDS011;59991;52.140;5.428;2023-11-19T01:48:08;35.20;;;6.13;;
72115;SDS011;59991;52.140;5.428;2023-11-19T01:48:43;29.05;;;5.47;;
72115;SDS011;59991;52.140;5.428;2023-11-19T01:49:17;27.13;;;4.65;;
72115;SDS011;59991;52.140;5.428;2023-11-19T01:49:49;32.65;;;5.43;;
72115;SDS011;59991;52.140;5.428;2023-11-19T01:50:22;26.70;;;4.50;;
72115;SDS011;59991;52.140;5.428;2023-11-19T01:50:55;26.77;;;4.43;;
72115;SDS011;59991;52.140;5.428;2023-11-19T01:51:31;29.50;;;4.70;;
72115;SDS011;59991;52.140;5.428;2023-11-19T01:52:02;42.97;;;4.53;;
72115;SDS011;59991;52.140;5.428;2023-11-19T01:52:34;30.70;;;4.45;;
72115;SDS011;59991;52.140;5.428;2023-11-19T01:53:10;32.25;;;5.20;;
72115;SDS011;59991;52.140;5.428;2023-11-19T01:53:41;37.47;;;5.13;;
72115;SDS011;59991;52.140;5.428;2023-11-19T01:54:14;29.23;;;5.20;;
72115;SDS011;59991;52.140;5.428;2023-11-19T01:54:46;33.88;;;5.40;;
72115;SDS011;59991;52.140;5.428;2023-11-19T01:55:19;26.60;;;4.63;;
72115;SDS011;59991;52.140;5.428;2023-11-19T01:55:51;31.33;;;4.38;;
72115;SDS011;59991;52.140;5.428;2023-11-19T01:56:23;23.93;;;4.20;;
72115;SDS011;59991;52.140;5.428;2023-11-19T01:56:57;27.08;;;4.18;;
72115;SDS011;59991;52.140;5.428;2023-11-19T01:57:28;32.25;;;4.90;;
72115;SDS011;59991;52.140;5.428;2023-11-19T01:58:00;33.70;;;5.85;;
72115;SDS011;59991;52.140;5.428;2023-11-19T01:58:33;33.20;;;6.70;;
72115;SDS011;59991;52.140;5.428;2023-11-19T01:59:05;31.05;;;5.00;;
72115;SDS011;59991;52.140;5.428;2023-11-19T01:59:38;30.90;;;5.40;;
72115;SDS011;59991;52.140;5.428;2023-11-19T02:00:10;39.38;;;4.53;;
72115;SDS011;59991;52.140;5.428;2023-11-19T02:00:44;36.60;;;5.05;;
72115;SDS011;59991;52.140;5.428;2023-11-19T02:01:16;34.00;;;4.82;;
72115;SDS011;59991;52.140;5.428;2023-11-19T02:01:48;35.93;;;5.37;;
72115;SDS011;59991;52.140;5.428;2023-11-19T02:02:29;35.08;;;5.70;;
72115;SDS011;59991;52.140;5.428;2023-11-19T02:03:01;30.88;;;4.18;;
72115;SDS011;59991;52.140;5.428;2023-11-19T02:03:34;32.65;;;5.40;;
72115;SDS011;59991;52.140;5.428;2023-11-19T02:04:07;28.98;;;4.47;;
72115;SDS011;59991;52.140;5.428;2023-11-19T02:04:40;28.55;;;4.93;;
72115;SDS011;59991;52.140;5.428;2023-11-19T02:05:12;30.02;;;3.65;;
72115;SDS011;59991;52.140;5.428;2023-11-19T02:05:44;32.80;;;5.82;;
72115;SDS011;59991;52.140;5.428;2023-11-19T02:06:18;30.58;;;4.78;;
72115;SDS011;59991;52.140;5.428;2023-11-19T02:06:49;29.15;;;4.85;;
72115;SDS011;59991;52.140;5.428;2023-11-19T02:07:24;33.37;;;4.47;;
72115;SDS011;59991;52.140;5.428;2023-11-19T02:07:56;27.30;;;5.45;;
72115;SDS011;59991;52.140;5.428;2023-11-19T02:08:28;34.10;;;5.45;;
72115;SDS011;59991;52.140;5.428;2023-11-19T02:09:00;29.58;;;4.85;;
72115;SDS011;59991;52.140;5.428;2023-11-19T02:09:32;38.85;;;6.40;;
72115;SDS011;59991;52.140;5.428;2023-11-19T02:10:04;35.17;;;5.72;;
72115;SDS011;59991;52.140;5.428;2023-11-19T02:10:37;30.85;;;5.60;;
72115;SDS011;59991;52.140;5.428;2023-11-19T02:11:09;36.70;;;5.45;;
72115;SDS011;59991;52.140;5.428;2023-11-19T02:11:41;38.42;;;6.55;;
72115;SDS011;59991;52.140;5.428;2023-11-19T02:12:12;41.97;;;5.68;;
72115;SDS011;59991;52.140;5.428;2023-11-19T02:12:44;37.37;;;5.10;;
72115;SDS011;59991;52.140;5.428;2023-11-19T02:13:17;35.63;;;6.07;;
72115;SDS011;59991;52.140;5.428;2023-11-19T02:13:49;30.75;;;4.95;;
72115;SDS011;59991;52.140;5.428;2023-11-19T02:14:24;29.60;;;4.63;;
72115;SDS011;59991;52.140;5.428;2023-11-19T02:14:57;29.15;;;4.82;;
72115;SDS011;59991;52.140;5.428;2023-11-19T02:15:30;33.03;;;5.55;;
72115;SDS011;59991;52.140;5.428;2023-11-19T02:16:02;41.85;;;6.55;;
72115;SDS011;59991;52.140;5.428;2023-11-19T02:16:34;33.88;;;5.55;;
72115;SDS011;59991;52.140;5.428;2023-11-19T02:17:06;30.27;;;5.18;;
72115;SDS011;59991;52.140;5.428;2023-11-19T02:17:37;37.30;;;5.22;;
72115;SDS011;59991;52.140;5.428;2023-11-19T02:18:26;31.70;;;4.77;;
72115;SDS011;59991;52.140;5.428;2023-11-19T02:19:01;39.97;;;5.28;;
72115;SDS011;59991;52.140;5.428;2023-11-19T02:19:32;21.95;;;5.43;;
72115;SDS011;59991;52.140;5.428;2023-11-19T02:20:04;34.35;;;5.18;;
72115;SDS011;59991;52.140;5.428;2023-11-19T02:20:42;42.17;;;5.00;;
72115;SDS011;59991;52.140;5.428;2023-11-19T02:21:14;31.95;;;5.13;;
72115;SDS011;59991;52.140;5.428;2023-11-19T02:21:46;27.23;;;4.63;;
72115;SDS011;59991;52.140;5.428;2023-11-19T02:22:18;27.60;;;4.88;;
72115;SDS011;59991;52.140;5.428;2023-11-19T02:22:49;31.92;;;5.35;;
72115;SDS011;59991;52.140;5.428;2023-11-19T02:23:24;35.47;;;5.53;;
72115;SDS011;59991;52.140;5.428;2023-11-19T02:24:03;32.30;;;4.93;;
72115;SDS011;59991;52.140;5.428;2023-11-19T02:24:40;32.53;;;5.60;;
72115;SDS011;59991;52.140;5.428;2023-11-19T02:25:23;36.40;;;5.20;;
72115;SDS011;59991;52.140;5.428;2023-11-19T02:26:47;31.90;;;6.18;;
72115;SDS011;59991;52.140;5.428;2023-11-19T02:27:31;29.08;;;4.40;;
72115;SDS011;59991;52.140;5.428;2023-11-19T02:28:16;42.70;;;7.70;;
72115;SDS011;59991;52.140;5.428;2023-11-19T02:28:48;31.48;;;5.78;;
72115;SDS011;59991;52.140;5.428;2023-11-19T02:29:19;38.67;;;5.15;;
72115;SDS011;59991;52.140;5.428;2023-11-19T02:29:51;34.53;;;4.97;;
72115;SDS011;59991;52.140;5.428;2023-11-19T02:30:24;36.83;;;6.43;;
72115;SDS011;59991;52.140;5.428;2023-11-19T02:30:57;32.20;;;4.82;;
72115;SDS011;59991;52.140;5.428;2023-11-19T02:31:29;38.90;;;5.55;;
72115;SDS011;59991;52.140;5.428;2023-11-19T02:32:01;36.80;;;5.40;;
72115;SDS011;59991;52.140;5.428;2023-11-19T02:32:33;37.28;;;5.20;;
72115;SDS011;59991;52.140;5.428;2023-11-19T02:33:04;32.83;;;5.22;;
72115;SDS011;59991;52.140;5.428;2023-11-19T02:33:39;33.13;;;4.45;;
72115;SDS011;59991;52.140;5.428;2023-11-19T02:34:11;29.45;;;5.63;;
72115;SDS011;59991;52.140;5.428;2023-11-19T02:34:44;38.88;;;5.72;;
72115;SDS011;59991;52.140;5.428;2023-11-19T02:35:15;35.35;;;4.43;;
72115;SDS011;59991;52.140;5.428;2023-11-19T02:35:47;33.43;;;5.20;;
72115;SDS011;59991;52.140;5.428;2023-11-19T02:36:18;43.08;;;5.78;;
72115;SDS011;59991;52.140;5.428;2023-11-19T02:36:50;35.05;;;5.85;;
72115;SDS011;59991;52.140;5.428;2023-11-19T02:37:21;39.40;;;5.57;;
72115;SDS011;59991;52.140;5.428;2023-11-19T02:37:56;42.78;;;6.63;;
72115;SDS011;59991;52.140;5.428;2023-11-19T02:38:27;37.00;;;5.68;;
72115;SDS011;59991;52.140;5.428;2023-11-19T02:38:59;39.60;;;5.15;;
72115;SDS011;59991;52.140;5.428;2023-11-19T02:39:30;34.20;;;5.18;;
72115;SDS011;59991;52.140;5.428;2023-11-19T02:40:02;34.28;;;5.80;;
72115;SDS011;59991;52.140;5.428;2023-11-19T02:40:35;44.03;;;5.82;;
72115;SDS011;59991;52.140;5.428;2023-11-19T02:41:07;36.43;;;5.70;;
72115;SDS011;59991;52.140;5.428;2023-11-19T02:41:39;34.00;;;5.95;;
72115;SDS011;59991;52.140;5.428;2023-11-19T02:42:11;37.70;;;6.22;;
72115;SDS011;59991;52.140;5.428;2023-11-19T02:42:42;34.60;;;6.78;;
72115;SDS011;59991;52.140;5.428;2023-11-19T02:43:14;36.53;;;5.35;;
72115;SDS011;59991;52.140;5.428;2023-11-19T02:43:46;44.65;;;5.65;;
72115;SDS011;59991;52.140;5.428;2023-11-19T02:44:19;39.35;;;5.63;;
72115;SDS011;59991;52.140;5.428;2023-11-19T02:44:51;34.38;;;6.05;;
72115;SDS011;59991;52.140;5.428;2023-11-19T02:45:23;24.55;;;5.00;;
72115;SDS011;59991;52.140;5.428;2023-11-19T02:45:55;39.63;;;6.68;;
72115;SDS011;59991;52.140;5.428;2023-11-19T02:46:27;38.97;;;7.33;;
72115;SDS011;59991;52.140;5.428;2023-11-19T02:46:58;38.13;;;5.95;;
72115;SDS011;59991;52.140;5.428;2023-11-19T02:47:31;42.53;;;6.78;;
72115;SDS011;59991;52.140;5.428;2023-11-19T02:48:02;37.95;;;5.15;;
72115;SDS011;59991;52.140;5.428;2023-11-19T02:48:34;36.38;;;6.53;;
72115;SDS011;59991;52.140;5.428;2023-11-19T02:49:06;39.45;;;4.82;;
72115;SDS011;59991;52.140;5.428;2023-11-19T02:49:38;37.55;;;5.97;;
72115;SDS011;59991;52.140;5.428;2023-11-19T02:50:10;36.03;;;6.40;;
72115;SDS011;59991;52.140;5.428;2023-11-19T02:50:47;47.17;;;5.97;;
72115;SDS011;59991;52.140;5.428;2023-11-19T02:51:19;32.55;;;5.70;;
72115;SDS011;59991;52.140;5.428;2023-11-19T02:51:50;38.17;;;5.73;;
72115;SDS011;59991;52.140;5.428;2023-11-19T02:52:22;42.78;;;6.30;;
72115;SDS011;59991;52.140;5.428;2023-11-19T02:52:55;47.05;;;6.55;;
72115;SDS011;59991;52.140;5.428;2023-11-19T02:53:30;34.63;;;4.88;;
72115;SDS011;59991;52.140;5.428;2023-11-19T02:54:03;41.88;;;7.45;;
72115;SDS011;59991;52.140;5.428;2023-11-19T02:54:35;40.28;;;5.78;;
72115;SDS011;59991;52.140;5.428;2023-11-19T02:55:06;35.20;;;7.40;;
72115;SDS011;59991;52.140;5.428;2023-11-19T02:55:41;46.33;;;6.03;;
72115;SDS011;59991;52.140;5.428;2023-11-19T02:56:19;40.72;;;5.38;;
72115;SDS011;59991;52.140;5.428;2023-11-19T02:56:57;32.42;;;5.75;;
72115;SDS011;59991;52.140;5.428;2023-11-19T02:57:31;42.57;;;5.33;;
72115;SDS011;59991;52.140;5.428;2023-11-19T02:58:04;33.95;;;5.10;;
72115;SDS011;59991;52.140;5.428;2023-11-19T02:58:50;32.17;;;5.35;;
72115;SDS011;59991;52.140;5.428;2023-11-19T02:59:22;32.92;;;5.93;;
72115;SDS011;59991;52.140;5.428;2023-11-19T02:59:59;38.42;;;5.50;;
72115;SDS011;59991;52.140;5.428;2023-11-19T03:00:30;31.10;;;4.95;;
72115;SDS011;59991;52.140;5.428;2023-11-19T03:01:08;39.45;;;5.40;;
72115;SDS011;59991;52.140;5.428;2023-11-19T03:01:54;39.15;;;7.30;;
72115;SDS011;59991;52.140;5.428;2023-11-19T03:02:26;38.53;;;7.53;;
72115;SDS011;59991;52.140;5.428;2023-11-19T03:03:05;32.80;;;4.93;;
72115;SDS011;59991;52.140;5.428;2023-11-19T03:03:49;38.07;;;6.00;;
72115;SDS011;59991;52.140;5.428;2023-11-19T03:04:26;30.45;;;5.55;;
72115;SDS011;59991;52.140;5.428;2023-11-19T03:04:58;36.10;;;6.30;;
72115;SDS011;59991;52.140;5.428;2023-11-19T03:05:30;42.85;;;6.72;;
72115;SDS011;59991;52.140;5.428;2023-11-19T03:06:02;44.55;;;6.93;;
72115;SDS011;59991;52.140;5.428;2023-11-19T03:06:36;43.63;;;6.50;;
72115;SDS011;59991;52.140;5.428;2023-11-19T03:07:08;32.10;;;5.82;;
72115;SDS011;59991;52.140;5.428;2023-11-19T03:07:43;41.95;;;6.70;;
72115;SDS011;59991;52.140;5.428;2023-11-19T03:09:06;44.78;;;6.47;;
72115;SDS011;59991;52.140;5.428;2023-11-19T03:09:41;38.13;;;5.80;;
72115;SDS011;59991;52.140;5.428;2023-11-19T03:10:15;36.92;;;4.90;;
72115;SDS011;59991;52.140;5.428;2023-11-19T03:10:46;44.40;;;5.55;;
72115;SDS011;59991;52.140;5.428;2023-11-19T03:11:18;44.05;;;6.70;;
72115;SDS011;59991;52.140;5.428;2023-11-19T03:11:50;38.53;;;7.70;;
72115;SDS011;59991;52.140;5.428;2023-11-19T03:12:21;41.28;;;6.03;;
72115;SDS011;59991;52.140;5.428;2023-11-19T03:12:53;41.67;;;6.88;;
72115;SDS011;59991;52.140;5.428;2023-11-19T03:13:26;40.50;;;6.18;;
72115;SDS011;59991;52.140;5.428;2023-11-19T03:13:58;37.45;;;5.88;;
72115;SDS011;59991;52.140;5.428;2023-11-19T03:14:29;44.50;;;6.22;;
72115;SDS011;59991;52.140;5.428;2023-11-19T03:15:01;41.10;;;6.67;;
72115;SDS011;59991;52.140;5.428;2023-11-19T03:15:32;34.97;;;6.47;;
72115;SDS011;59991;52.140;5.428;2023-11-19T03:16:04;39.03;;;5.95;;
72115;SDS011;59991;52.140;5.428;2023-11-19T03:16:36;34.33;;;6.57;;
72115;SDS011;59991;52.140;5.428;2023-11-19T03:17:08;39.80;;;6.68;;
72115;SDS011;59991;52.140;5.428;2023-11-19T03:17:41;35.65;;;5.75;;
72115;SDS011;59991;52.140;5.428;2023-11-19T03:18:14;32.97;;;7.30;;
72115;SDS011;59991;52.140;5.428;2023-11-19T03:18:45;28.65;;;5.97;;
72115;SDS011;59991;52.140;5.428;2023-11-19T03:19:17;35.53;;;6.28;;